Time;durP1;ratioP1;P1;durP2;ratioP2;P2;SDS_P1;SDS_P2;PMS_P1;PMS_P2;Temp;Humidity;BMP_temperature;BMP_pressure;BME280_temperature;BME280_humidity;BME280_pressure;Samples;Min_cycle;Max_cycle;Signal;HPM_P1;HPM_P2
2022/03/10 00:00:40;;;;;;;;;;;8.50;71.00;;;;;;5088922;28;19924;-92
2022/03/10 00:03:07;;;;;;;;;;;8.50;71.00;;;;;;5072232;28;20370;-92
2022/03/10 00:05:34;;;;;;;;;;;8.40;71.00;;;;;;5093445;28;20014;-91
2022/03/10 00:08:01;;;;;;;;;;;8.40;71.00;;;;;;5075100;28;19920;-92
2022/03/10 00:10:28;;;;;;;;;;;8.40;71.00;;;;;;5113985;27;19923;-91
2022/03/10 00:12:55;;;;;;;;;;;8.40;71.00;;;;;;5086540;28;19920;-92
2022/03/10 00:15:23;;;;;;;;;;;8.40;71.00;;;;;;5074596;28;19973;-91
2022/03/10 00:17:50;;;;;;;;;;;8.30;70.90;;;;;;5121360;27;19919;-92
2022/03/10 00:20:17;;;;;;;;;;;8.30;71.00;;;;;;5077433;28;19928;-92
2022/03/10 00:22:52;;;;;;;;;;;8.30;71.00;;;;;;5078501;28;19921;-91
2022/03/10 00:25:19;;;;;;;;;;;8.30;71.00;;;;;;5076842;28;20645;-92
2022/03/10 00:27:47;;;;;;;;;;;8.20;71.00;;;;;;5073009;28;19927;-91
2022/03/10 00:30:14;;;;;;;;;;;8.20;70.90;;;;;;5088729;28;19920;-92
2022/03/10 00:32:48;;;;;;;;;;;8.20;70.90;;;;;;5121153;28;19927;-93
2022/03/10 00:35:15;;;;;;;;;;;8.10;71.00;;;;;;5087705;28;19965;-92
2022/03/10 00:37:47;;;;;;;;;;;8.10;70.90;;;;;;5090787;28;19920;-92
2022/03/10 00:40:14;;;;;;;;;;;8.10;70.90;;;;;;5089271;28;20283;-91
2022/03/10 00:42:41;;;;;;;;;;;8.00;70.90;;;;;;5090893;28;19989;-91
2022/03/10 00:45:08;;;;;;;;;;;8.00;70.90;;;;;;5089917;28;19974;-91
2022/03/10 00:47:35;;;;;;;;;;;8.00;70.90;;;;;;5091360;28;19966;-93
2022/03/10 00:50:03;;;;;;;;;;;7.90;70.90;;;;;;5091084;28;20355;-91
2022/03/10 00:52:30;;;;;;;;;;;7.90;71.00;;;;;;5090826;28;19969;-92
2022/03/10 00:54:57;;;;;;;;;;;7.90;71.00;;;;;;5090405;28;20370;-92
2022/03/10 00:57:24;;;;;;;;;;;7.80;71.00;;;;;;5090794;28;19921;-92
2022/03/10 00:59:50;;;;;;;;;;;7.80;71.00;;;;;;5090009;28;19962;-93
2022/03/10 01:02:17;;;;;;;;;;;7.70;71.00;;;;;;5090758;28;20329;-92
2022/03/10 01:04:44;;;;;;;;;;;7.70;71.00;;;;;;5089274;28;20338;-92
2022/03/10 01:07:11;;;;;;;;;;;7.70;71.00;;;;;;5089238;28;19927;-92
2022/03/10 01:09:38;;;;;;;;;;;7.70;71.10;;;;;;5089265;28;19920;-92
2022/03/10 01:12:05;;;;;;;;;;;7.60;71.10;;;;;;5090861;28;19974;-92
2022/03/10 01:14:32;;;;;;;;;;;7.60;71.10;;;;;;5071069;28;19920;-92
2022/03/10 01:16:59;;;;;;;;;;;7.60;71.10;;;;;;5085725;28;19927;-91
2022/03/10 01:19:27;;;;;;;;;;;7.50;71.10;;;;;;5079327;28;19920;-91
2022/03/10 01:21:54;;;;;;;;;;;7.50;71.10;;;;;;5106427;28;19929;-92
2022/03/10 01:24:21;;;;;;;;;;;7.50;71.10;;;;;;5089693;28;19924;-91
2022/03/10 01:26:48;;;;;;;;;;;7.40;71.10;;;;;;5090456;28;19920;-91
2022/03/10 01:29:15;;;;;;;;;;;7.40;71.10;;;;;;5092008;28;19920;-91
2022/03/10 01:31:42;;;;;;;;;;;7.40;71.10;;;;;;5086949;28;19996;-91
2022/03/10 01:34:08;;;;;;;;;;;7.40;71.10;;;;;;5090072;28;19920;-92
2022/03/10 01:36:35;;;;;;;;;;;7.40;71.00;;;;;;5088027;28;19919;-91
2022/03/10 01:39:04;;;;;;;;;;;7.30;71.00;;;;;;5089150;28;19981;-92
2022/03/10 01:41:34;;;;;;;;;;;7.30;71.00;;;;;;5087315;28;19920;-91
2022/03/10 01:44:07;;;;;;;;;;;7.30;71.00;;;;;;5087148;28;19920;-92
2022/03/10 01:46:35;;;;;;;;;;;7.20;70.90;;;;;;5089966;28;19924;-91
2022/03/10 01:49:03;;;;;;;;;;;7.20;70.90;;;;;;5092674;28;19927;-90
2022/03/10 01:51:30;;;;;;;;;;;7.20;70.90;;;;;;5093787;28;19931;-92
2022/03/10 01:53:57;;;;;;;;;;;7.20;70.90;;;;;;5092419;28;20002;-93
2022/03/10 01:56:24;;;;;;;;;;;7.20;70.80;;;;;;5095824;28;19920;-91
2022/03/10 01:58:53;;;;;;;;;;;7.20;70.80;;;;;;5091675;28;19920;-91
2022/03/10 02:01:20;;;;;;;;;;;7.10;70.80;;;;;;5092396;28;20373;-91
2022/03/10 02:03:47;;;;;;;;;;;7.10;70.70;;;;;;5093398;28;20437;-91
2022/03/10 02:06:14;;;;;;;;;;;7.10;70.70;;;;;;5093495;28;20057;-91
2022/03/10 02:11:28;;;;;;;;;;;7.00;70.60;;;;;;5095497;28;19920;-90
2022/03/10 02:13:55;;;;;;;;;;;7.00;70.60;;;;;;5091805;28;20402;-91
2022/03/10 02:19:08;;;;;;;;;;;7.00;70.50;;;;;;5093322;28;19924;-92
2022/03/10 02:21:34;;;;;;;;;;;7.00;70.40;;;;;;5092093;28;19985;-91
2022/03/10 02:24:01;;;;;;;;;;;6.90;70.40;;;;;;5091897;28;19920;-92
2022/03/10 02:26:28;;;;;;;;;;;6.90;70.30;;;;;;5093875;28;19920;-92
2022/03/10 02:28:55;;;;;;;;;;;6.90;70.30;;;;;;5092732;28;20343;-91
2022/03/10 02:31:21;;;;;;;;;;;6.90;70.20;;;;;;5091805;28;19920;-91
2022/03/10 02:33:48;;;;;;;;;;;6.90;70.20;;;;;;5091484;28;19920;-91
2022/03/10 02:36:17;;;;;;;;;;;6.90;70.20;;;;;;5091936;28;20318;-91
2022/03/10 02:38:44;;;;;;;;;;;6.80;70.10;;;;;;5092481;28;19927;-91
2022/03/10 02:41:11;;;;;;;;;;;6.80;70.10;;;;;;5093295;28;19924;-91
2022/03/10 02:43:38;;;;;;;;;;;6.80;70.10;;;;;;5091150;28;20370;-90
2022/03/10 02:46:05;;;;;;;;;;;6.80;70.10;;;;;;5092622;28;19927;-92
2022/03/10 02:48:32;;;;;;;;;;;6.70;70.00;;;;;;5121575;27;19920;-90
2022/03/10 02:50:59;;;;;;;;;;;6.70;70.00;;;;;;5090891;28;19928;-91
2022/03/10 02:53:26;;;;;;;;;;;6.70;70.00;;;;;;5093582;28;19924;-91
2022/03/10 02:55:53;;;;;;;;;;;6.70;70.00;;;;;;5089120;28;19920;-91
2022/03/10 02:58:20;;;;;;;;;;;6.70;70.00;;;;;;5090609;28;20340;-92
2022/03/10 03:00:47;;;;;;;;;;;6.70;70.00;;;;;;5091398;28;19919;-90
2022/03/10 03:03:13;;;;;;;;;;;6.60;70.00;;;;;;5091205;28;19985;-93
2022/03/10 03:05:41;;;;;;;;;;;6.60;70.00;;;;;;5093758;28;19927;-91
2022/03/10 03:08:08;;;;;;;;;;;6.50;69.90;;;;;;5091714;28;20298;-91
2022/03/10 03:10:36;;;;;;;;;;;6.50;69.90;;;;;;5090836;28;19924;-91
2022/03/10 03:13:07;;;;;;;;;;;6.50;69.90;;;;;;5090979;28;20404;-91
2022/03/10 03:15:34;;;;;;;;;;;6.50;69.90;;;;;;5089583;28;19920;-92
2022/03/10 03:18:01;;;;;;;;;;;6.50;69.90;;;;;;5090876;28;20393;-91
2022/03/10 03:20:28;;;;;;;;;;;6.40;69.90;;;;;;5092946;28;19924;-91
2022/03/10 03:22:55;;;;;;;;;;;6.40;69.90;;;;;;5091880;28;20344;-91
2022/03/10 03:25:22;;;;;;;;;;;6.40;69.90;;;;;;5091775;28;19920;-91
2022/03/10 03:27:48;;;;;;;;;;;6.40;69.80;;;;;;5090564;28;19923;-92
2022/03/10 03:30:16;;;;;;;;;;;6.40;69.80;;;;;;5091042;28;19924;-93
2022/03/10 03:32:43;;;;;;;;;;;6.40;69.80;;;;;;5092055;28;19924;-92
2022/03/10 03:35:10;;;;;;;;;;;6.40;69.80;;;;;;5092891;28;19927;-91
2022/03/10 03:37:37;;;;;;;;;;;6.30;69.70;;;;;;5090784;28;19951;-92
2022/03/10 03:40:06;;;;;;;;;;;6.30;69.70;;;;;;5090213;28;19920;-91
2022/03/10 03:42:34;;;;;;;;;;;6.30;69.70;;;;;;5091844;28;19927;-92
2022/03/10 03:45:01;;;;;;;;;;;6.30;69.60;;;;;;5090604;28;19920;-91
2022/03/10 03:47:28;;;;;;;;;;;6.30;69.70;;;;;;5092753;28;19927;-92
2022/03/10 03:49:55;;;;;;;;;;;6.30;69.70;;;;;;5090725;28;19962;-91
2022/03/10 03:52:22;;;;;;;;;;;6.30;69.70;;;;;;5090530;28;19920;-92
2022/03/10 03:54:49;;;;;;;;;;;6.20;69.60;;;;;;5088579;28;19981;-91
2022/03/10 03:57:16;;;;;;;;;;;6.20;69.60;;;;;;5091549;28;19920;-92
2022/03/10 03:59:42;;;;;;;;;;;6.20;69.60;;;;;;5091536;28;19927;-91
2022/03/10 04:02:12;;;;;;;;;;;6.20;69.60;;;;;;5092741;28;20336;-92
2022/03/10 04:04:39;;;;;;;;;;;6.20;69.60;;;;;;5091623;28;19926;-92
2022/03/10 04:07:06;;;;;;;;;;;6.20;69.60;;;;;;5090414;28;19920;-92
2022/03/10 04:09:33;;;;;;;;;;;6.10;69.50;;;;;;5089956;28;19919;-92
2022/03/10 04:12:00;;;;;;;;;;;6.10;69.50;;;;;;5089441;28;19920;-92
2022/03/10 04:14:27;;;;;;;;;;;6.10;69.50;;;;;;5092046;28;19927;-92
2022/03/10 04:16:54;;;;;;;;;;;6.00;69.50;;;;;;5091133;28;20373;-93
2022/03/10 04:19:21;;;;;;;;;;;6.00;69.40;;;;;;5090837;28;19924;-92
2022/03/10 04:21:48;;;;;;;;;;;6.00;69.40;;;;;;5088832;28;19927;-92
2022/03/10 04:24:18;;;;;;;;;;;6.00;69.40;;;;;;5089566;28;19920;-91
2022/03/10 04:26:45;;;;;;;;;;;5.90;69.40;;;;;;5090430;28;20404;-91
2022/03/10 04:29:13;;;;;;;;;;;5.90;69.40;;;;;;5090746;28;20370;-92
2022/03/10 04:31:41;;;;;;;;;;;5.90;69.40;;;;;;5089818;28;19924;-91
2022/03/10 04:34:09;;;;;;;;;;;5.90;69.40;;;;;;5088459;28;19920;-91
2022/03/10 04:36:36;;;;;;;;;;;5.90;69.50;;;;;;5090098;28;19920;-92
2022/03/10 04:39:03;;;;;;;;;;;5.80;69.50;;;;;;5089326;28;19932;-93
2022/03/10 04:41:30;;;;;;;;;;;5.80;69.50;;;;;;5093156;28;19920;-93
2022/03/10 04:43:57;;;;;;;;;;;5.70;69.50;;;;;;5089656;28;19927;-92
2022/03/10 04:46:24;;;;;;;;;;;5.70;69.50;;;;;;5088642;28;19927;-92
2022/03/10 04:48:51;;;;;;;;;;;5.70;69.50;;;;;;5089993;28;19934;-93
2022/03/10 04:51:18;;;;;;;;;;;5.70;69.50;;;;;;5089805;28;20335;-91
2022/03/10 04:53:44;;;;;;;;;;;5.60;69.50;;;;;;5090247;28;19981;-91
2022/03/10 04:56:12;;;;;;;;;;;5.60;69.50;;;;;;5120197;28;19928;-92
2022/03/10 04:58:39;;;;;;;;;;;5.60;69.50;;;;;;5089709;28;20224;-91
2022/03/10 05:01:05;;;;;;;;;;;5.50;69.50;;;;;;5090873;28;20344;-92
2022/03/10 05:03:33;;;;;;;;;;;5.50;69.50;;;;;;5089865;28;19920;-91
2022/03/10 05:06:00;;;;;;;;;;;5.50;69.50;;;;;;5089706;28;19935;-91
2022/03/10 05:08:26;;;;;;;;;;;5.50;69.60;;;;;;5091401;28;19920;-91
2022/03/10 05:10:53;;;;;;;;;;;5.40;69.60;;;;;;5089423;28;19924;-91
2022/03/10 05:13:20;;;;;;;;;;;5.40;69.60;;;;;;5088888;28;19919;-91
2022/03/10 05:15:47;;;;;;;;;;;5.30;69.60;;;;;;5090333;28;19973;-91
2022/03/10 05:18:14;;;;;;;;;;;5.30;69.60;;;;;;5090494;28;19920;-92
2022/03/10 05:20:41;;;;;;;;;;;5.30;69.70;;;;;;5091774;28;20286;-91
2022/03/10 05:23:08;;;;;;;;;;;5.30;69.70;;;;;;5094215;28;19973;-91
2022/03/10 05:25:37;;;;;;;;;;;5.20;69.70;;;;;;5094298;28;19967;-92
2022/03/10 05:28:05;;;;;;;;;;;5.20;69.70;;;;;;5094100;28;19920;-91
2022/03/10 05:30:32;;;;;;;;;;;5.20;69.80;;;;;;5094249;28;19920;-91
2022/03/10 05:32:58;;;;;;;;;;;5.20;69.80;;;;;;5094282;28;19924;-91
2022/03/10 05:35:29;;;;;;;;;;;5.10;69.90;;;;;;5095955;28;19965;-91
2022/03/10 05:37:56;;;;;;;;;;;5.10;69.80;;;;;;5093988;28;19920;-92
2022/03/10 05:40:23;;;;;;;;;;;5.00;69.90;;;;;;5093907;28;19924;-92
2022/03/10 05:42:53;;;;;;;;;;;5.00;69.90;;;;;;5093884;28;19923;-91
2022/03/10 05:45:21;;;;;;;;;;;5.00;69.90;;;;;;5093846;28;19920;-91
2022/03/10 05:47:51;;;;;;;;;;;5.00;69.90;;;;;;5094405;28;19923;-91
2022/03/10 05:50:19;;;;;;;;;;;4.90;70.00;;;;;;5092749;28;19920;-91
2022/03/10 05:52:46;;;;;;;;;;;4.90;70.00;;;;;;5091409;28;19927;-90
2022/03/10 05:55:16;;;;;;;;;;;4.90;70.10;;;;;;5092427;28;20019;-91
2022/03/10 05:57:45;;;;;;;;;;;4.90;70.10;;;;;;5093542;28;20017;-91
2022/03/10 06:00:14;;;;;;;;;;;4.90;70.10;;;;;;5093820;28;19924;-92
2022/03/10 06:02:42;;;;;;;;;;;4.80;70.10;;;;;;5093839;28;19919;-91
2022/03/10 06:05:09;;;;;;;;;;;4.80;70.10;;;;;;5092159;28;20011;-91
2022/03/10 06:07:36;;;;;;;;;;;4.80;70.10;;;;;;5093338;28;20011;-92
2022/03/10 06:10:03;;;;;;;;;;;4.80;70.20;;;;;;5092268;28;19962;-91
2022/03/10 06:12:30;;;;;;;;;;;4.70;70.10;;;;;;5093544;28;19927;-90
2022/03/10 06:14:58;;;;;;;;;;;4.70;70.20;;;;;;5093336;28;19928;-89
2022/03/10 06:17:25;;;;;;;;;;;4.70;70.20;;;;;;5095478;28;19927;-92
2022/03/10 06:19:52;;;;;;;;;;;4.70;70.20;;;;;;5093227;28;20393;-93
2022/03/10 06:22:21;;;;;;;;;;;4.70;70.30;;;;;;5093273;28;20328;-92
2022/03/10 06:24:48;;;;;;;;;;;4.60;70.30;;;;;;5092325;28;19969;-92
2022/03/10 06:27:16;;;;;;;;;;;4.60;70.30;;;;;;5091980;28;19966;-93
2022/03/10 06:29:43;;;;;;;;;;;4.60;70.40;;;;;;5094525;28;20040;-91
2022/03/10 06:32:13;;;;;;;;;;;4.60;70.40;;;;;;5094383;28;20324;-91
2022/03/10 06:34:40;;;;;;;;;;;4.50;70.40;;;;;;5090838;28;19924;-92
2022/03/10 06:37:07;;;;;;;;;;;4.50;70.50;;;;;;5091837;28;19927;-93
2022/03/10 06:39:34;;;;;;;;;;;4.50;70.50;;;;;;5092052;28;19920;-92
2022/03/10 06:42:02;;;;;;;;;;;4.50;70.60;;;;;;5094209;28;19924;-91
2022/03/10 06:44:30;;;;;;;;;;;4.40;70.60;;;;;;5094446;28;19943;-92
2022/03/10 06:46:56;;;;;;;;;;;4.40;70.70;;;;;;5091927;28;19969;-92
2022/03/10 06:49:24;;;;;;;;;;;4.40;70.70;;;;;;5091053;28;19928;-91
2022/03/10 06:51:51;;;;;;;;;;;4.40;70.80;;;;;;5091478;28;19924;-91
2022/03/10 06:54:18;;;;;;;;;;;4.40;70.90;;;;;;5092630;28;19946;-91
2022/03/10 06:56:44;;;;;;;;;;;4.40;71.00;;;;;;5092701;28;20308;-91
2022/03/10 06:59:12;;;;;;;;;;;4.40;71.00;;;;;;5093025;28;19926;-91
2022/03/10 07:01:39;;;;;;;;;;;4.40;71.10;;;;;;5090146;28;20385;-91
2022/03/10 07:04:06;;;;;;;;;;;4.40;71.20;;;;;;5092120;28;19920;-90
2022/03/10 07:06:33;;;;;;;;;;;4.40;71.30;;;;;;5089096;28;19924;-92
2022/03/10 07:09:00;;;;;;;;;;;4.40;71.30;;;;;;5091847;28;19989;-91
2022/03/10 07:11:26;;;;;;;;;;;4.40;71.40;;;;;;5093509;28;19927;-91
2022/03/10 07:13:54;;;;;;;;;;;4.40;71.50;;;;;;5092285;28;19972;-90
2022/03/10 07:16:20;;;;;;;;;;;4.40;71.50;;;;;;5092018;28;19920;-92
2022/03/10 07:18:50;;;;;;;;;;;4.50;71.60;;;;;;5091777;28;19936;-91
2022/03/10 07:21:18;;;;;;;;;;;4.40;71.60;;;;;;5092097;28;20336;-91
2022/03/10 07:23:44;;;;;;;;;;;4.50;71.70;;;;;;5093129;28;20173;-90
2022/03/10 07:26:12;;;;;;;;;;;4.50;71.70;;;;;;5093063;28;19931;-91
2022/03/10 07:28:39;;;;;;;;;;;4.50;71.80;;;;;;5091699;28;19973;-91
2022/03/10 07:31:06;;;;;;;;;;;4.50;71.80;;;;;;5091792;28;19920;-92
2022/03/10 07:33:33;;;;;;;;;;;4.60;71.80;;;;;;5089217;28;19951;-91
2022/03/10 07:36:01;;;;;;;;;;;4.60;71.90;;;;;;5090323;28;19920;-91
2022/03/10 07:38:28;;;;;;;;;;;4.60;71.90;;;;;;5091653;28;19920;-91
2022/03/10 07:40:58;;;;;;;;;;;4.70;71.90;;;;;;5090184;28;20015;-91
2022/03/10 07:43:25;;;;;;;;;;;4.70;72.00;;;;;;5090282;28;19974;-90
2022/03/10 07:45:52;;;;;;;;;;;4.80;72.00;;;;;;5089983;28;19978;-91
2022/03/10 07:48:18;;;;;;;;;;;4.80;72.00;;;;;;5089543;28;19970;-92
2022/03/10 07:50:45;;;;;;;;;;;4.90;72.00;;;;;;5091811;28;19927;-92
2022/03/10 07:53:12;;;;;;;;;;;4.90;72.10;;;;;;5090273;28;19920;-91
2022/03/10 07:55:41;;;;;;;;;;;4.90;72.10;;;;;;5089995;28;19920;-92
2022/03/10 07:58:08;;;;;;;;;;;5.00;72.10;;;;;;5081700;28;20371;-91
2022/03/10 08:00:35;;;;;;;;;;;5.00;72.10;;;;;;5076105;28;20352;-89
2022/03/10 08:03:06;;;;;;;;;;;5.10;72.20;;;;;;5076349;28;19927;-92
2022/03/10 08:05:34;;;;;;;;;;;5.20;72.20;;;;;;5092283;28;20417;-91
2022/03/10 08:08:01;;;;;;;;;;;5.20;72.20;;;;;;5091061;28;19966;-91
2022/03/10 08:10:28;;;;;;;;;;;5.30;72.30;;;;;;5089644;28;19927;-90
2022/03/10 08:12:55;;;;;;;;;;;5.30;72.40;;;;;;5085303;28;19928;-92
2022/03/10 08:15:23;;;;;;;;;;;5.40;72.40;;;;;;5091041;28;20279;-91
2022/03/10 08:17:49;;;;;;;;;;;5.50;72.60;;;;;;5090451;28;19920;-90
2022/03/10 08:20:16;;;;;;;;;;;5.50;72.60;;;;;;5092806;28;19920;-91
2022/03/10 08:22:43;;;;;;;;;;;5.60;72.80;;;;;;5089492;28;19924;-91
2022/03/10 08:25:11;;;;;;;;;;;5.70;73.00;;;;;;5087481;28;20389;-91
2022/03/10 08:27:38;;;;;;;;;;;5.80;73.10;;;;;;5090969;28;19920;-92
2022/03/10 08:30:06;;;;;;;;;;;5.90;73.20;;;;;;5071933;28;19978;-91
2022/03/10 08:32:32;;;;;;;;;;;5.90;73.30;;;;;;5091666;28;20366;-92
2022/03/10 08:35:00;;;;;;;;;;;6.00;73.40;;;;;;5091067;28;19924;-91
2022/03/10 08:37:26;;;;;;;;;;;6.20;73.60;;;;;;5089092;28;19923;-91
2022/03/10 08:39:54;;;;;;;;;;;6.30;73.70;;;;;;5090658;28;19931;-91
2022/03/10 08:42:21;;;;;;;;;;;6.40;73.80;;;;;;5090621;28;19919;-91
2022/03/10 08:44:48;;;;;;;;;;;6.50;73.80;;;;;;5089954;28;19926;-90
2022/03/10 08:47:17;;;;;;;;;;;6.60;73.80;;;;;;5090362;28;20004;-90
2022/03/10 08:49:44;;;;;;;;;;;6.70;73.80;;;;;;5090292;28;19920;-89
2022/03/10 08:52:11;;;;;;;;;;;6.90;73.80;;;;;;5090425;28;19920;-90
2022/03/10 08:54:39;;;;;;;;;;;7.00;73.70;;;;;;5090130;28;19924;-90
2022/03/10 08:57:06;;;;;;;;;;;7.10;73.60;;;;;;5073381;28;19920;-89
2022/03/10 08:59:33;;;;;;;;;;;7.30;73.50;;;;;;5092102;28;19920;-91
2022/03/10 09:02:00;;;;;;;;;;;7.40;73.40;;;;;;5094409;28;19920;-89
2022/03/10 09:04:29;;;;;;;;;;;7.40;73.30;;;;;;5093271;28;19923;-90
2022/03/10 09:06:56;;;;;;;;;;;7.60;73.30;;;;;;5094361;28;19920;-90
2022/03/10 09:09:24;;;;;;;;;;;7.70;73.20;;;;;;5094606;28;19953;-90
2022/03/10 09:11:51;;;;;;;;;;;7.90;73.10;;;;;;5094886;28;19945;-89
2022/03/10 09:14:18;;;;;;;;;;;7.90;72.90;;;;;;5094048;28;19973;-89
2022/03/10 09:16:45;;;;;;;;;;;8.10;72.80;;;;;;5093161;28;19945;-90
2022/03/10 09:19:12;;;;;;;;;;;8.20;72.70;;;;;;5092951;28;20445;-89
2022/03/10 09:21:39;;;;;;;;;;;8.30;72.60;;;;;;5093230;28;19920;-90
2022/03/10 09:24:07;;;;;;;;;;;8.40;72.50;;;;;;5078294;28;20382;-90
2022/03/10 09:26:34;;;;;;;;;;;8.50;72.30;;;;;;5091986;28;19965;-89
2022/03/10 09:29:01;;;;;;;;;;;8.70;72.20;;;;;;5093925;28;20430;-89
2022/03/10 09:31:30;;;;;;;;;;;8.80;72.00;;;;;;5094059;28;20385;-91
2022/03/10 09:33:57;;;;;;;;;;;8.90;71.80;;;;;;5092722;28;19921;-92
2022/03/10 09:36:26;;;;;;;;;;;9.00;71.60;;;;;;5094023;28;19927;-90
2022/03/10 09:38:53;;;;;;;;;;;9.10;71.40;;;;;;5093824;28;19973;-90
2022/03/10 09:41:20;;;;;;;;;;;9.20;71.30;;;;;;5094852;28;19973;-91
2022/03/10 09:43:48;;;;;;;;;;;9.30;71.20;;;;;;5092249;28;19973;-91
2022/03/10 09:46:15;;;;;;;;;;;9.50;71.00;;;;;;5091184;28;19920;-89
2022/03/10 09:48:42;;;;;;;;;;;9.50;70.70;;;;;;5093597;28;19920;-90
2022/03/10 09:51:09;;;;;;;;;;;9.70;70.60;;;;;;5094017;28;19924;-90
2022/03/10 09:53:37;;;;;;;;;;;9.80;70.40;;;;;;5095627;28;20027;-90
2022/03/10 09:56:05;;;;;;;;;;;9.90;70.20;;;;;;5093724;28;20404;-91
2022/03/10 09:58:32;;;;;;;;;;;10.00;70.00;;;;;;5091862;28;20401;-88
2022/03/10 10:01:08;;;;;;;;;;;10.20;69.90;;;;;;5092200;28;19923;-90
2022/03/10 10:03:35;;;;;;;;;;;10.30;69.70;;;;;;5089409;28;19924;-89
2022/03/10 10:06:05;;;;;;;;;;;10.40;69.50;;;;;;5093106;28;19920;-89
2022/03/10 10:08:34;;;;;;;;;;;10.50;69.20;;;;;;5094135;28;19920;-89
2022/03/10 10:11:01;;;;;;;;;;;10.70;68.90;;;;;;5091298;28;20386;-89
2022/03/10 10:13:33;;;;;;;;;;;10.80;68.70;;;;;;5092835;28;20416;-90
2022/03/10 10:16:01;;;;;;;;;;;10.90;68.50;;;;;;5092813;28;20393;-90
2022/03/10 10:18:29;;;;;;;;;;;11.00;68.20;;;;;;5092793;28;19935;-89
2022/03/10 10:21:18;;;;;;;;;;;11.20;68.00;;;;;;5078065;28;19931;-89
2022/03/10 10:23:47;;;;;;;;;;;11.20;67.70;;;;;;5093819;28;19966;-89
2022/03/10 10:26:14;;;;;;;;;;;11.40;67.50;;;;;;5090931;28;19943;-90
2022/03/10 10:28:46;;;;;;;;;;;11.50;67.30;;;;;;5091764;28;19994;-91
2022/03/10 10:31:16;;;;;;;;;;;11.60;67.10;;;;;;5091934;28;19920;-92
2022/03/10 10:34:05;;;;;;;;;;;11.70;67.00;;;;;;5093245;28;19920;-92
2022/03/10 10:36:33;;;;;;;;;;;11.80;66.80;;;;;;5092923;28;20393;-89
2022/03/10 10:39:09;;;;;;;;;;;11.90;66.70;;;;;;5092708;28;19928;-90
2022/03/10 10:41:38;;;;;;;;;;;11.90;66.50;;;;;;5089576;28;19928;-90
2022/03/10 10:44:05;;;;;;;;;;;12.10;66.30;;;;;;5104642;28;20031;-90
2022/03/10 10:46:33;;;;;;;;;;;12.20;66.10;;;;;;5087084;28;19920;-89
2022/03/10 10:49:02;;;;;;;;;;;12.30;65.90;;;;;;5092442;28;19935;-90
2022/03/10 10:51:29;;;;;;;;;;;12.40;65.70;;;;;;5092695;28;19919;-88
2022/03/10 10:53:57;;;;;;;;;;;12.50;65.50;;;;;;5092542;28;19920;-89
2022/03/10 10:56:25;;;;;;;;;;;12.60;65.30;;;;;;5092931;28;19920;-89
2022/03/10 10:58:54;;;;;;;;;;;12.70;65.10;;;;;;5092226;28;19924;-88
2022/03/10 11:01:30;;;;;;;;;;;12.80;65.00;;;;;;5092377;28;19973;-95
2022/03/10 11:03:58;;;;;;;;;;;12.90;64.90;;;;;;5091220;28;19920;-93
2022/03/10 11:06:25;;;;;;;;;;;12.90;64.70;;;;;;5091433;28;19974;-94
2022/03/10 11:08:53;;;;;;;;;;;13.00;64.50;;;;;;5091145;28;20336;-92
2022/03/10 11:11:20;;;;;;;;;;;13.20;64.30;;;;;;5093902;28;20021;-90
2022/03/10 11:13:48;;;;;;;;;;;13.20;64.00;;;;;;5091918;28;19924;-88
2022/03/10 11:16:16;;;;;;;;;;;13.30;63.80;;;;;;5090855;28;19924;-89
2022/03/10 11:18:49;;;;;;;;;;;13.30;63.70;;;;;;5091114;28;19930;-88
2022/03/10 11:21:26;;;;;;;;;;;13.40;63.50;;;;;;5086326;28;20313;-88
2022/03/10 11:24:19;;;;;;;;;;;13.50;63.30;;;;;;5092075;28;20408;-89
2022/03/10 11:26:55;;;;;;;;;;;13.50;63.10;;;;;;5092982;28;20327;-88
2022/03/10 11:29:23;;;;;;;;;;;13.60;62.90;;;;;;5091985;28;19966;-88
2022/03/10 11:31:52;;;;;;;;;;;13.60;62.60;;;;;;5091237;28;19924;-88
2022/03/10 11:34:38;;;;;;;;;;;13.70;62.50;;;;;;5090879;28;20397;-88
2022/03/10 11:37:11;;;;;;;;;;;13.70;62.30;;;;;;5090994;28;20400;-89
2022/03/10 11:39:53;;;;;;;;;;;13.90;62.20;;;;;;5093846;28;19927;-89
2022/03/10 11:42:29;;;;;;;;;;;13.90;62.10;;;;;;5076029;28;20385;-88
2022/03/10 11:45:09;;;;;;;;;;;13.90;61.90;;;;;;5089868;28;19927;-89
2022/03/10 11:47:37;;;;;;;;;;;14.00;61.80;;;;;;5089118;28;19932;-89
2022/03/10 11:50:22;;;;;;;;;;;14.00;61.60;;;;;;5103335;28;19921;-88
2022/03/10 11:52:50;;;;;;;;;;;14.10;61.50;;;;;;5087476;28;19919;-88
2022/03/10 11:55:17;;;;;;;;;;;14.20;61.40;;;;;;5090573;28;19920;-87
2022/03/10 11:57:53;;;;;;;;;;;14.20;61.20;;;;;;5090855;28;19931;-89
2022/03/10 12:00:44;;;;;;;;;;;14.20;61.10;;;;;;5089911;28;19923;-86
2022/03/10 12:03:18;;;;;;;;;;;14.30;61.00;;;;;;5075703;28;19923;-87
2022/03/10 12:05:58;;;;;;;;;;;14.30;60.90;;;;;;5091926;28;20014;-87
2022/03/10 12:08:29;;;;;;;;;;;14.40;60.90;;;;;;5091562;28;20343;-87
2022/03/10 12:10:59;;;;;;;;;;;14.40;60.80;;;;;;5089014;28;19931;-87
2022/03/10 12:13:28;;;;;;;;;;;14.40;60.70;;;;;;5090618;28;19924;-87
2022/03/10 12:15:55;;;;;;;;;;;14.50;60.70;;;;;;5091215;28;19920;-87
2022/03/10 12:18:24;;;;;;;;;;;14.50;60.60;;;;;;5090305;28;19920;-87
2022/03/10 12:20:53;;;;;;;;;;;14.60;60.60;;;;;;5091465;28;19981;-87
2022/03/10 12:23:23;;;;;;;;;;;14.60;60.50;;;;;;5089626;28;19920;-87
2022/03/10 12:25:55;;;;;;;;;;;14.70;60.30;;;;;;5089927;28;19924;-87
2022/03/10 12:28:33;;;;;;;;;;;14.70;60.10;;;;;;5090534;28;19919;-87
2022/03/10 12:31:01;;;;;;;;;;;14.80;60.10;;;;;;5090133;28;19920;-86
2022/03/10 12:33:28;;;;;;;;;;;14.80;60.00;;;;;;5089936;28;19934;-86
2022/03/10 12:35:55;;;;;;;;;;;14.90;59.90;;;;;;5090287;28;19973;-86
2022/03/10 12:38:34;;;;;;;;;;;14.90;59.80;;;;;;5091238;28;19926;-87
2022/03/10 12:41:02;;;;;;;;;;;14.90;59.70;;;;;;5089880;28;19923;-88
2022/03/10 12:43:29;;;;;;;;;;;15.00;59.60;;;;;;5088762;28;20386;-89
2022/03/10 12:45:56;;;;;;;;;;;15.10;59.50;;;;;;5090619;28;19924;-88
2022/03/10 12:48:31;;;;;;;;;;;15.10;59.40;;;;;;5090556;28;19927;-88
2022/03/10 12:50:58;;;;;;;;;;;15.10;59.40;;;;;;5090329;28;19974;-88
2022/03/10 12:53:34;;;;;;;;;;;15.10;59.30;;;;;;5091645;28;20056;-88
2022/03/10 12:56:01;;;;;;;;;;;15.20;59.10;;;;;;5089206;28;19950;-89
2022/03/10 12:58:30;;;;;;;;;;;15.20;59.00;;;;;;5090369;28;20305;-88
2022/03/10 13:01:03;;;;;;;;;;;15.30;59.10;;;;;;5089074;28;19973;-88
2022/03/10 13:03:35;;;;;;;;;;;15.30;59.00;;;;;;5090531;28;19989;-89
2022/03/10 13:06:07;;;;;;;;;;;15.30;59.00;;;;;;5090295;28;19966;-89
2022/03/10 13:08:40;;;;;;;;;;;15.30;58.90;;;;;;5088372;28;19924;-89
2022/03/10 13:11:07;;;;;;;;;;;15.40;58.80;;;;;;5089909;28;20010;-88
2022/03/10 13:13:34;;;;;;;;;;;15.40;58.60;;;;;;5089100;28;19927;-89
2022/03/10 13:16:01;;;;;;;;;;;15.40;58.50;;;;;;5090367;28;19920;-89
2022/03/10 13:18:38;;;;;;;;;;;15.40;58.40;;;;;;5090402;28;19920;-87
2022/03/10 13:21:05;;;;;;;;;;;15.40;58.30;;;;;;5071553;28;19966;-88
2022/03/10 13:23:32;;;;;;;;;;;15.50;58.20;;;;;;5086836;28;20385;-89
2022/03/10 13:25:59;;;;;;;;;;;15.50;58.10;;;;;;5090259;28;19965;-88
2022/03/10 13:28:26;;;;;;;;;;;15.60;58.00;;;;;;5090145;28;19920;-88
2022/03/10 13:30:53;;;;;;;;;;;15.60;58.00;;;;;;5090119;28;19973;-88
2022/03/10 13:33:24;;;;;;;;;;;15.60;58.00;;;;;;5089107;28;19920;-89
2022/03/10 13:35:58;;;;;;;;;;;15.60;58.00;;;;;;5089838;28;19920;-88
2022/03/10 13:38:26;;;;;;;;;;;15.70;58.00;;;;;;5092184;28;19920;-88
2022/03/10 13:41:01;;;;;;;;;;;15.60;58.00;;;;;;5088601;28;19924;-88
2022/03/10 13:43:38;;;;;;;;;;;15.70;57.90;;;;;;5091759;28;20289;-88
2022/03/10 13:46:13;;;;;;;;;;;15.70;58.00;;;;;;5093696;28;20351;-87
2022/03/10 13:48:53;;;;;;;;;;;15.70;58.00;;;;;;5093230;28;19920;-88
2022/03/10 13:51:22;;;;;;;;;;;15.80;57.90;;;;;;5093773;28;19920;-88
2022/03/10 13:53:52;;;;;;;;;;;15.90;57.90;;;;;;5094110;28;19923;-88
2022/03/10 13:56:27;;;;;;;;;;;15.90;57.90;;;;;;5093690;28;19920;-88
2022/03/10 13:58:55;;;;;;;;;;;15.90;57.90;;;;;;5093495;28;19930;-88
2022/03/10 14:01:24;;;;;;;;;;;15.90;57.80;;;;;;5093517;28;20363;-88
2022/03/10 14:03:52;;;;;;;;;;;16.00;57.80;;;;;;5093051;28;19919;-87
2022/03/10 14:06:20;;;;;;;;;;;16.00;57.70;;;;;;5093482;28;20351;-88
2022/03/10 14:08:52;;;;;;;;;;;16.00;57.70;;;;;;5092905;28;20287;-87
2022/03/10 14:11:22;;;;;;;;;;;16.00;57.60;;;;;;5093508;28;19920;-88
2022/03/10 14:13:49;;;;;;;;;;;16.10;57.50;;;;;;5093164;28;19924;-88
2022/03/10 14:16:17;;;;;;;;;;;16.10;57.40;;;;;;5093027;28;19970;-87
2022/03/10 14:18:46;;;;;;;;;;;16.20;57.30;;;;;;5091296;28;20396;-89
2022/03/10 14:21:13;;;;;;;;;;;16.20;57.20;;;;;;5092011;28;19923;-88
2022/03/10 14:23:40;;;;;;;;;;;16.20;57.10;;;;;;5094640;28;20014;-88
2022/03/10 14:26:09;;;;;;;;;;;16.30;57.00;;;;;;5092380;28;19950;-88
2022/03/10 14:28:37;;;;;;;;;;;16.30;56.90;;;;;;5092773;28;19924;-88
2022/03/10 14:31:08;;;;;;;;;;;16.40;56.70;;;;;;5092864;28;19927;-88
2022/03/10 14:33:36;;;;;;;;;;;16.40;56.50;;;;;;5092528;28;19927;-88
2022/03/10 14:36:06;;;;;;;;;;;16.40;56.40;;;;;;5092776;28;19989;-89
2022/03/10 14:38:33;;;;;;;;;;;16.40;56.30;;;;;;5090440;28;20378;-88